createdAt,value
2023-05-15T00:00:42.010Z,101681.03
2023-05-15T00:01:43.838Z,101682.84
2023-05-15T00:02:45.865Z,101685.72
2023-05-15T00:03:48.360Z,101682.16
2023-05-15T00:04:50.581Z,101684.03
2023-05-15T00:05:52.571Z,101682.34
2023-05-15T00:06:54.447Z,101678.63
2023-05-15T00:07:56.498Z,101675.25
2023-05-15T00:08:58.458Z,101662.84
2023-05-15T00:10:00.722Z,101679.78
2023-05-15T00:11:02.486Z,101678.94
2023-05-15T00:12:04.665Z,101677.25
2023-05-15T00:13:06.503Z,101683.47
2023-05-15T00:14:08.300Z,101687.16
2023-05-15T00:15:10.696Z,101679.25
2023-05-15T00:16:12.674Z,101680.09
2023-05-15T00:17:14.639Z,101684.66
2023-05-15T00:18:16.437Z,101679.25
2023-05-15T00:19:18.335Z,101677.53
2023-05-15T00:20:20.608Z,101683.91
2023-05-15T00:21:22.394Z,101685.78
2023-05-15T00:22:24.380Z,101686.63
2023-05-15T00:23:26.216Z,101679.53
2023-05-15T00:24:28.056Z,101683.22
2023-05-15T00:25:29.915Z,101683.22
2023-05-15T00:26:31.760Z,101681.41
2023-05-15T00:27:33.637Z,101681.53
2023-05-15T00:28:38.490Z,101684.09
2023-05-15T00:29:40.460Z,101687.78
2023-05-15T00:30:42.235Z,101685.25
2023-05-15T00:31:44.192Z,101686.25
2023-05-15T00:32:46.098Z,101688.94
2023-05-15T00:33:48.069Z,101678.16
2023-05-15T00:34:49.836Z,101677.31
2023-05-15T00:35:51.787Z,101679.16
2023-05-15T00:36:53.607Z,101675.63
2023-05-15T00:37:55.464Z,101674.75
2023-05-15T00:38:57.669Z,101674.75
2023-05-15T00:39:59.594Z,101682.03
2023-05-15T00:41:06.523Z,101671.38
2023-05-15T00:42:09.235Z,101672.06
2023-05-15T00:43:12.374Z,101670.38
2023-05-15T00:44:16.921Z,101671.38
2023-05-15T00:45:22.005Z,101676.63
2023-05-15T00:46:26.434Z,101660.91
2023-05-15T00:47:29.065Z,101677.63
2023-05-15T00:48:31.965Z,101663.59
2023-05-15T00:49:35.669Z,101670.84
2023-05-15T00:50:41.562Z,101672.38
2023-05-15T00:51:43.956Z,101673.25
2023-05-15T00:52:46.148Z,101671.56
2023-05-15T00:53:48.067Z,101673.38
2023-05-15T00:54:50.234Z,101673.38
2023-05-15T00:55:53.072Z,101670.16
2023-05-15T00:56:58.222Z,101670.16
2023-05-15T00:58:01.526Z,101666.28
2023-05-15T00:59:04.793Z,101660.22
2023-05-15T01:00:10.501Z,101667.31
2023-05-15T01:01:14.940Z,101664.59
2023-05-15T01:02:18.515Z,101659.22
2023-05-15T01:03:20.827Z,101664.59
2023-05-15T01:04:22.925Z,101662.91
2023-05-15T01:05:25.176Z,101660.22
2023-05-15T01:06:27.190Z,101662.91
2023-05-15T01:07:34.878Z,101629.00
2023-05-15T01:08:45.980Z,101662.91
2023-05-15T01:09:50.451Z,101660.38
2023-05-15T01:10:52.993Z,101669.16
2023-05-15T01:11:57.718Z,101656.81
2023-05-15T01:13:02.617Z,101651.44
2023-05-15T01:14:06.345Z,101656.81
2023-05-15T01:15:08.532Z,101659.53
2023-05-15T01:16:10.938Z,101652.41
2023-05-15T01:17:12.842Z,101649.72
2023-05-15T01:18:15.374Z,101645.63
2023-05-15T01:19:17.701Z,101648.19
2023-05-15T01:20:22.665Z,101643.78
2023-05-15T01:22:08.428Z,101652.69
2023-05-15T01:23:34.706Z,101647.13
2023-05-15T01:25:00.989Z,101652.06
2023-05-15T01:26:02.972Z,101643.28
2023-05-15T01:27:13.794Z,101643.03
2023-05-15T01:28:22.354Z,101639.66
2023-05-15T01:29:50.300Z,101639.78
2023-05-15T01:30:55.473Z,101642.03
2023-05-15T01:32:24.319Z,101635.50
2023-05-15T01:33:34.393Z,101633.97
2023-05-15T01:34:46.127Z,101632.56
2023-05-15T01:36:00.176Z,101636.97
2023-05-15T01:37:04.371Z,101632.16
2023-05-15T01:38:33.511Z,101635.53
2023-05-15T01:39:37.084Z,101633.16
2023-05-15T01:40:39.308Z,101649.88
2023-05-15T01:41:55.314Z,101637.56
2023-05-15T01:43:06.106Z,101643.94
2023-05-15T01:44:14.556Z,101639.88
2023-05-15T01:45:18.561Z,101636.84
2023-05-15T01:46:23.384Z,101631.91
2023-05-15T01:47:33.458Z,101631.41
2023-05-15T01:48:37.981Z,101642.56
2023-05-15T01:49:42.189Z,101638.31
2023-05-15T01:50:45.941Z,101607.97
2023-05-15T01:51:53.094Z,101625.84
2023-05-15T01:52:58.515Z,101619.38
2023-05-15T01:54:02.973Z,101625.84
2023-05-15T01:55:07.411Z,101622.44
2023-05-15T01:56:14.238Z,101617.84
2023-05-15T01:57:17.244Z,101633.22
2023-05-15T01:58:20.961Z,101627.00
2023-05-15T01:59:24.683Z,101629.69
2023-05-15T02:00:26.506Z,101629.84
2023-05-15T02:01:30.074Z,101629.00
2023-05-15T02:02:32.821Z,101626.31
2023-05-15T02:03:36.414Z,101627.31
2023-05-15T02:04:39.798Z,101620.53
2023-05-15T02:05:42.588Z,101607.66
2023-05-15T02:06:44.810Z,101626.44
2023-05-15T02:07:48.033Z,101624.94
2023-05-15T02:08:51.600Z,101623.94
2023-05-15T02:09:56.764Z,101615.16
2023-05-15T02:11:02.986Z,101615.84
2023-05-15T02:12:06.717Z,101622.25
2023-05-15T02:13:10.440Z,101623.75
2023-05-15T02:14:13.069Z,101620.69
2023-05-15T02:15:17.052Z,101620.53
2023-05-15T02:16:21.884Z,101619.38
2023-05-15T02:17:24.009Z,101624.94
2023-05-15T02:18:26.116Z,101629.47
2023-05-15T02:19:27.977Z,101620.53
2023-05-15T02:20:29.787Z,101625.06
2023-05-15T02:21:31.572Z,101626.94
2023-05-15T02:22:33.452Z,101625.94
2023-05-15T02:23:35.389Z,101627.94
2023-05-15T02:24:37.247Z,101619.44
2023-05-15T02:25:44.642Z,101620.44
2023-05-15T02:27:00.682Z,101629.75
2023-05-15T02:28:09.589Z,101629.31
2023-05-15T02:29:11.307Z,101631.00
2023-05-15T02:30:41.361Z,101628.31
2023-05-15T02:32:04.175Z,101605.38
2023-05-15T02:33:14.877Z,101622.31
2023-05-15T02:34:39.593Z,101618.75
2023-05-15T02:36:06.735Z,101632.59
2023-05-15T02:37:21.112Z,101622.31
2023-05-15T02:38:38.716Z,101623.31
2023-05-15T02:39:43.815Z,101624.31
2023-05-15T02:40:48.370Z,101627.31
2023-05-15T02:41:52.396Z,101627.44
2023-05-15T02:42:55.081Z,101615.16
2023-05-15T02:43:57.163Z,101617.16
2023-05-15T02:45:00.698Z,101619.00
2023-05-15T02:46:07.202Z,101611.03
2023-05-15T02:47:10.241Z,101609.22
2023-05-15T02:48:12.999Z,101620.00
2023-05-15T02:49:15.565Z,101611.91
2023-05-15T02:50:18.613Z,101607.53
2023-05-15T02:51:21.240Z,101614.75
2023-05-15T02:52:24.831Z,101606.66
2023-05-15T02:53:26.857Z,101614.59
2023-05-15T02:54:28.624Z,101598.56
2023-05-15T02:55:31.194Z,101606.66
2023-05-15T02:56:33.060Z,101604.97
2023-05-15T02:57:34.902Z,101610.34
2023-05-15T02:58:37.931Z,101603.13
2023-05-15T02:59:39.849Z,101606.66
2023-05-15T03:00:41.725Z,101611.22
2023-05-15T03:01:43.912Z,101610.34
2023-05-15T03:02:45.934Z,101612.03
2023-05-15T03:03:47.817Z,101609.53
2023-05-15T03:04:49.744Z,101602.44
2023-05-15T03:05:51.610Z,101603.28
2023-05-15T03:06:53.587Z,101611.34
2023-05-15T03:07:55.736Z,101609.53
2023-05-15T03:08:57.510Z,101604.13
2023-05-15T03:09:59.281Z,101602.44
2023-05-15T03:11:01.280Z,101603.28
2023-05-15T03:12:03.360Z,101597.50
2023-05-15T03:13:05.177Z,101602.44
2023-05-15T03:14:06.967Z,101590.81
2023-05-15T03:15:09.113Z,101597.19
2023-05-15T03:16:11.382Z,101595.38
2023-05-15T03:17:13.323Z,101593.66
2023-05-15T03:18:17.237Z,101589.13
2023-05-15T03:19:20.475Z,101585.41
2023-05-15T03:20:22.333Z,101581.91
2023-05-15T03:21:24.116Z,101584.22
2023-05-15T03:22:25.992Z,101582.91
2023-05-15T03:23:27.829Z,101582.91
2023-05-15T03:24:29.671Z,101589.13
2023-05-15T03:25:31.541Z,101581.22
2023-05-15T03:26:33.368Z,101588.41
2023-05-15T03:27:35.294Z,101588.41
2023-05-15T03:28:37.036Z,101584.03
2023-05-15T03:29:39.000Z,101584.03
2023-05-15T03:30:44.425Z,101581.34
2023-05-15T03:31:46.248Z,101576.66
2023-05-15T03:32:48.096Z,101580.34
2023-05-15T03:33:50.738Z,101572.25
2023-05-15T03:34:52.533Z,101573.25
2023-05-15T03:35:54.369Z,101574.13
2023-05-15T03:36:56.437Z,101570.56
2023-05-15T03:37:58.387Z,101575.97
2023-05-15T03:39:00.262Z,101573.25
2023-05-15T03:40:02.027Z,101574.25
2023-05-15T03:41:03.803Z,101564.50
2023-05-15T03:42:07.553Z,101571.56
2023-05-15T03:43:09.370Z,101578.66
2023-05-15T03:44:11.166Z,101566.81
2023-05-15T03:45:15.133Z,101577.81
2023-05-15T03:46:16.965Z,101574.25
2023-05-15T03:47:18.849Z,101575.97
2023-05-15T03:48:20.694Z,101575.25
2023-05-15T03:49:22.480Z,101581.50
2023-05-15T03:50:24.332Z,101576.25
2023-05-15T03:51:26.180Z,101569.88
2023-05-15T03:52:28.672Z,101562.81
2023-05-15T03:53:30.534Z,101568.03
2023-05-15T03:54:32.424Z,101564.50
2023-05-15T03:55:34.318Z,101564.50
2023-05-15T03:56:36.155Z,101569.88
2023-05-15T03:57:38.051Z,101575.25
2023-05-15T03:58:39.864Z,101573.56
2023-05-15T03:59:41.753Z,101572.56
2023-05-15T04:00:44.145Z,101573.56
2023-05-15T04:02:02.807Z,101567.19
2023-05-15T04:03:06.047Z,101559.47
2023-05-15T04:04:07.898Z,101564.19
2023-05-15T04:05:10.022Z,101567.03
2023-05-15T04:06:11.833Z,101560.81
2023-05-15T04:07:13.647Z,101562.66
2023-05-15T04:08:15.853Z,101564.50
2023-05-15T04:09:17.711Z,101559.97
2023-05-15T04:10:19.787Z,101566.50
2023-05-15T04:11:23.126Z,101568.88
2023-05-15T04:12:28.166Z,101567.03
2023-05-15T04:13:29.925Z,101569.56
2023-05-15T04:14:31.735Z,101565.03
2023-05-15T04:15:33.703Z,101567.88
2023-05-15T04:16:35.587Z,101569.44
2023-05-15T04:17:37.609Z,101565.88
2023-05-15T04:18:39.443Z,101569.44
2023-05-15T04:19:43.051Z,101572.94
2023-05-15T04:20:45.193Z,101555.72
2023-05-15T04:21:46.967Z,101569.25
2023-05-15T04:22:49.042Z,101572.81
2023-05-15T04:23:50.787Z,101568.94
2023-05-15T04:24:52.687Z,101568.94
2023-05-15T04:25:55.021Z,101566.25
2023-05-15T04:26:56.889Z,101565.25
2023-05-15T04:27:58.677Z,101560.19
2023-05-15T04:29:04.377Z,101564.41
2023-05-15T04:30:08.984Z,101565.97
2023-05-15T04:31:10.960Z,101565.81
2023-05-15T04:32:12.914Z,101566.66
2023-05-15T04:33:14.882Z,101563.97
2023-05-15T04:34:17.048Z,101561.28
2023-05-15T04:35:19.167Z,101562.28
2023-05-15T04:36:21.161Z,101569.19
2023-05-15T04:37:22.905Z,101564.66
2023-05-15T04:38:24.795Z,101553.88
2023-05-15T04:39:26.575Z,101558.28
2023-05-15T04:40:28.600Z,101560.09
2023-05-15T04:41:30.475Z,101559.09
2023-05-15T04:42:32.245Z,101556.41
2023-05-15T04:43:34.006Z,101558.09
2023-05-15T04:44:35.971Z,101564.50
2023-05-15T04:45:37.841Z,101560.97
2023-05-15T04:46:39.887Z,101561.66
2023-05-15T04:47:41.880Z,101558.97
2023-05-15T04:48:43.992Z,101557.28
2023-05-15T04:49:47.790Z,101548.19
2023-05-15T04:50:49.747Z,101552.72
2023-05-15T04:51:51.507Z,101552.56
2023-05-15T04:52:53.366Z,101548.19
2023-05-15T04:53:55.168Z,101545.63
2023-05-15T04:54:56.993Z,101542.09
2023-05-15T04:55:59.120Z,101552.72
2023-05-15T04:57:01.369Z,101549.19
2023-05-15T04:58:03.423Z,101553.72
2023-05-15T04:59:05.201Z,101547.50
2023-05-15T05:00:12.080Z,101553.56
2023-05-15T05:01:13.918Z,101555.28
2023-05-15T05:02:15.798Z,101549.19
2023-05-15T05:03:17.732Z,101547.31
2023-05-15T05:04:19.724Z,101555.41
2023-05-15T05:05:21.514Z,101544.13
2023-05-15T05:06:24.212Z,101547.50
2023-05-15T05:07:25.987Z,101553.56
2023-05-15T05:08:27.761Z,101548.19
2023-05-15T05:09:29.562Z,101549.88
2023-05-15T05:10:31.371Z,101548.19
2023-05-15T05:11:33.126Z,101538.09
2023-05-15T05:12:34.917Z,101550.41
2023-05-15T05:13:36.820Z,101542.19
2023-05-15T05:14:40.773Z,101541.16
2023-05-15T05:15:42.641Z,101537.47
2023-05-15T05:16:45.721Z,101549.31
2023-05-15T05:17:47.525Z,101539.22
2023-05-15T05:18:49.585Z,101542.63
2023-05-15T05:19:51.362Z,101531.53
2023-05-15T05:21:00.559Z,101524.47
2023-05-15T05:22:05.275Z,101535.97
2023-05-15T05:23:07.272Z,101535.66
2023-05-15T05:24:09.099Z,101530.13
2023-05-15T05:25:11.107Z,101532.50
2023-05-15T05:26:12.947Z,101533.06
2023-05-15T05:27:14.763Z,101517.38
2023-05-15T05:28:16.693Z,101520.63
2023-05-15T05:29:18.482Z,101517.59
2023-05-15T05:30:20.855Z,101518.97
2023-05-15T05:31:23.126Z,101523.03
2023-05-15T05:32:25.228Z,101520.03
2023-05-15T05:33:27.173Z,101515.31
2023-05-15T05:34:29.202Z,101517.69
2023-05-15T05:35:31.102Z,101520.94
2023-05-15T05:36:32.963Z,101521.44
2023-05-15T05:37:34.875Z,101513.03
2023-05-15T05:38:37.101Z,101512.72
2023-05-15T05:39:38.891Z,101508.69
2023-05-15T05:40:40.789Z,101512.06
2023-05-15T05:41:43.196Z,101500.09
2023-05-15T05:42:44.947Z,101507.06
2023-05-15T05:43:46.697Z,101506.88
2023-05-15T05:44:48.438Z,101503.03
2023-05-15T05:45:50.409Z,101507.25
2023-05-15T05:46:52.840Z,101499.84
2023-05-15T05:47:57.966Z,101496.84
2023-05-15T05:49:00.044Z,101501.91
2023-05-15T05:50:01.963Z,101501.56
2023-05-15T05:51:04.178Z,101499.69
2023-05-15T05:52:08.079Z,101483.50
2023-05-15T05:53:09.934Z,101496.66
2023-05-15T05:54:11.792Z,101496.34
2023-05-15T05:55:13.725Z,101491.81
2023-05-15T05:56:16.037Z,101506.81
2023-05-15T05:57:17.884Z,101503.09
2023-05-15T05:58:25.497Z,101499.44
2023-05-15T05:59:29.225Z,101496.41
2023-05-15T06:00:31.210Z,101495.38
2023-05-15T06:01:33.235Z,101498.75
2023-05-15T06:02:35.924Z,101495.88
2023-05-15T06:03:39.282Z,101485.25
2023-05-15T06:04:41.403Z,101496.41
2023-05-15T06:05:43.242Z,101494.53
2023-05-15T06:06:45.308Z,101499.78
2023-05-15T06:07:47.910Z,101495.06
2023-05-15T06:08:49.731Z,101492.19
2023-05-15T06:09:51.493Z,101501.97
2023-05-15T06:10:53.260Z,101492.88
2023-05-15T06:11:55.020Z,101492.72
2023-05-15T06:12:56.922Z,101490.00
2023-05-15T06:13:58.757Z,101497.09
2023-05-15T06:15:00.619Z,101497.97
2023-05-15T06:16:02.414Z,101496.94
2023-05-15T06:17:04.979Z,101488.84
2023-05-15T06:18:07.004Z,101485.97
2023-05-15T06:19:09.206Z,101487.66
2023-05-15T06:20:12.105Z,101489.34
2023-05-15T06:21:13.904Z,101483.13
2023-05-15T06:22:15.720Z,101480.41
2023-05-15T06:23:17.516Z,101491.03
2023-05-15T06:24:19.276Z,101477.53
2023-05-15T06:25:21.227Z,101488.34
2023-05-15T06:26:23.111Z,101482.94
2023-05-15T06:27:26.517Z,101482.94
2023-05-15T06:28:28.509Z,101480.22
2023-05-15T06:29:30.279Z,101486.31
2023-05-15T06:30:32.111Z,101481.91
2023-05-15T06:31:33.991Z,101478.19
2023-05-15T06:32:36.007Z,101470.97
2023-05-15T06:33:37.822Z,101462.88
2023-05-15T06:34:39.602Z,101471.78
2023-05-15T06:35:41.454Z,101470.78
2023-05-15T06:36:43.415Z,101463.69
2023-05-15T06:37:50.147Z,101471.78
2023-05-15T06:38:51.997Z,101471.47
2023-05-15T06:39:53.792Z,101470.63
2023-05-15T06:40:55.980Z,101473.34
2023-05-15T06:42:01.332Z,101465.22
2023-05-15T06:43:04.673Z,101473.16
2023-05-15T06:44:06.448Z,101474.16
2023-05-15T06:45:09.099Z,101468.75
2023-05-15T06:46:10.958Z,101468.75
2023-05-15T06:47:12.864Z,101468.75
2023-05-15T06:48:14.735Z,101475.03
2023-05-15T06:49:16.527Z,101470.44
2023-05-15T06:50:18.317Z,101474.16
2023-05-15T06:51:20.310Z,101470.44
2023-05-15T06:52:22.133Z,101465.03
2023-05-15T06:53:23.960Z,101465.22
2023-05-15T06:54:25.931Z,101455.59
2023-05-15T06:55:27.985Z,101465.03
2023-05-15T06:56:29.840Z,101469.63
2023-05-15T06:57:31.632Z,101467.94
2023-05-15T06:58:33.417Z,101472.31
2023-05-15T06:59:35.828Z,101464.22
2023-05-15T07:00:37.670Z,101473.16
2023-05-15T07:01:39.619Z,101467.06
2023-05-15T07:02:41.433Z,101468.75
2023-05-15T07:03:43.327Z,101465.22
2023-05-15T07:04:45.418Z,101466.06
2023-05-15T07:05:47.246Z,101473.34
2023-05-15T07:06:49.032Z,101467.94
2023-05-15T07:07:50.964Z,101465.22
2023-05-15T07:08:53.009Z,101463.00
2023-05-15T07:09:54.781Z,101481.44
2023-05-15T07:10:56.748Z,101471.63
2023-05-15T07:11:58.515Z,101477.88
2023-05-15T07:13:00.359Z,101475.03
2023-05-15T07:14:02.411Z,101477.88
2023-05-15T07:15:05.538Z,101480.56
2023-05-15T07:16:07.837Z,101484.13
2023-05-15T07:17:09.764Z,101486.84
2023-05-15T07:18:11.766Z,101490.38
2023-05-15T07:19:13.969Z,101485.97
2023-05-15T07:20:15.862Z,101491.38
2023-05-15T07:21:17.704Z,101491.38
2023-05-15T07:22:19.742Z,101494.06
2023-05-15T07:23:21.599Z,101485.97
2023-05-15T07:24:23.393Z,101485.97
2023-05-15T07:25:26.081Z,101480.22
2023-05-15T07:26:36.396Z,101491.22
2023-05-15T07:27:42.709Z,101488.34
2023-05-15T07:28:44.590Z,101485.63
2023-05-15T07:29:46.392Z,101490.22
2023-05-15T07:30:48.562Z,101485.81
2023-05-15T07:31:50.495Z,101492.03
2023-05-15T07:32:52.392Z,101485.97
2023-05-15T07:33:54.204Z,101487.66
2023-05-15T07:34:55.986Z,101492.03
2023-05-15T07:35:57.814Z,101490.38
2023-05-15T07:36:59.617Z,101490.38
2023-05-15T07:38:01.536Z,101486.66
2023-05-15T07:39:03.722Z,101491.22
2023-05-15T07:40:06.451Z,101480.41
2023-05-15T07:41:08.971Z,101492.91
2023-05-15T07:42:10.922Z,101477.88
2023-05-15T07:43:12.702Z,101478.53
2023-05-15T07:44:14.462Z,101486.66
2023-05-15T07:45:16.454Z,101478.53
2023-05-15T07:46:18.476Z,101488.34
2023-05-15T07:47:20.329Z,101472.13
2023-05-15T07:48:22.655Z,101477.53
2023-05-15T07:49:24.544Z,101488.34
2023-05-15T07:50:26.572Z,101474.84
2023-05-15T07:51:29.057Z,101481.09
2023-05-15T07:52:30.815Z,101479.22
2023-05-15T07:53:33.295Z,101478.41
2023-05-15T07:54:35.126Z,101473.34
2023-05-15T07:55:37.379Z,101485.63
2023-05-15T07:56:39.225Z,101489.00
2023-05-15T07:57:41.030Z,101482.78
2023-05-15T07:58:42.812Z,101487.31
2023-05-15T07:59:44.558Z,101490.88
2023-05-15T08:00:46.414Z,101480.22
2023-05-15T08:01:48.227Z,101486.31
2023-05-15T08:02:50.198Z,101489.00
2023-05-15T08:03:52.220Z,101492.56
2023-05-15T08:04:54.026Z,101480.09
2023-05-15T08:05:55.949Z,101478.22
2023-05-15T08:06:57.817Z,101478.22
2023-05-15T08:08:00.807Z,101477.38
2023-05-15T08:09:03.169Z,101484.28
2023-05-15T08:10:06.418Z,101470.78
2023-05-15T08:11:08.289Z,101475.16
2023-05-15T08:12:21.386Z,101474.16
2023-05-15T08:13:23.346Z,101474.91
2023-05-15T08:14:25.216Z,101471.47
2023-05-15T08:15:27.225Z,101476.03
2023-05-15T08:16:29.550Z,101471.47
2023-05-15T08:17:31.464Z,101471.47
2023-05-15T08:18:33.348Z,101468.75
2023-05-15T08:19:35.123Z,101469.66
2023-05-15T08:20:38.164Z,101471.47
2023-05-15T08:21:40.937Z,101463.53
2023-05-15T08:22:42.729Z,101473.19
2023-05-15T08:23:44.775Z,101464.25
2023-05-15T08:24:46.664Z,101466.94
2023-05-15T08:25:48.445Z,101458.97
2023-05-15T08:26:50.324Z,101463.22
2023-05-15T08:27:52.122Z,101471.34
2023-05-15T08:28:53.926Z,101469.50
2023-05-15T08:29:55.810Z,101472.19
2023-05-15T08:30:57.647Z,101468.75
2023-05-15T08:31:59.450Z,101473.03
2023-05-15T08:33:01.314Z,101467.47
2023-05-15T08:34:03.105Z,101468.47
2023-05-15T08:35:05.268Z,101473.88
2023-05-15T08:36:08.078Z,101468.31
2023-05-15T08:37:09.878Z,101473.69
2023-05-15T08:38:12.014Z,101474.56
2023-05-15T08:39:13.774Z,101456.78
2023-05-15T08:40:15.662Z,101479.97
2023-05-15T08:41:40.931Z,101470.00
2023-05-15T08:42:56.382Z,101469.97
2023-05-15T08:43:59.745Z,101474.38
2023-05-15T08:45:01.680Z,101457.34
2023-05-15T08:46:04.160Z,101468.47
2023-05-15T08:47:06.911Z,101470.50
2023-05-15T08:48:13.728Z,101466.13
2023-05-15T08:49:43.786Z,101475.03
2023-05-15T08:50:46.909Z,101464.09
2023-05-15T08:51:48.924Z,101460.72
2023-05-15T08:52:52.042Z,101458.34
2023-05-15T08:53:53.999Z,101455.81
2023-05-15T08:54:56.384Z,101432.16
2023-05-15T08:55:58.468Z,101459.38
2023-05-15T08:57:00.692Z,101451.41
2023-05-15T08:58:02.771Z,101453.97
2023-05-15T08:59:04.616Z,101453.97
2023-05-15T09:00:12.151Z,101454.78
2023-05-15T09:01:15.758Z,101446.19
2023-05-15T09:02:18.418Z,101445.19
2023-05-15T09:03:23.045Z,101452.75
2023-05-15T09:04:24.947Z,101444.50
2023-05-15T09:05:28.635Z,101447.34
2023-05-15T09:06:32.866Z,101452.59
2023-05-15T09:07:35.343Z,101449.91
2023-05-15T09:08:38.234Z,101453.63
2023-05-15T09:09:41.088Z,101448.22
2023-05-15T09:10:43.365Z,101444.50
2023-05-15T09:11:46.360Z,101450.91
2023-05-15T09:12:51.037Z,101444.66
2023-05-15T09:13:53.678Z,101449.91
2023-05-15T09:15:16.032Z,101443.81
2023-05-15T09:16:17.981Z,101441.13
2023-05-15T09:17:19.859Z,101445.84
2023-05-15T09:18:22.373Z,101444.16
2023-05-15T09:19:24.328Z,101438.91
2023-05-15T09:20:32.126Z,101441.63
2023-05-15T09:21:34.522Z,101438.75
2023-05-15T09:22:36.821Z,101438.75
2023-05-15T09:23:38.596Z,101438.75
2023-05-15T09:24:40.394Z,101437.91
2023-05-15T09:25:44.858Z,101434.38
2023-05-15T09:27:01.376Z,101436.06
2023-05-15T09:28:03.280Z,101401.63
2023-05-15T09:29:05.125Z,101433.84
2023-05-15T09:30:10.609Z,101424.22
2023-05-15T09:31:12.618Z,101429.28
2023-05-15T09:32:15.657Z,101425.06
2023-05-15T09:33:17.628Z,101417.81
2023-05-15T09:34:19.437Z,101423.22
2023-05-15T09:35:29.881Z,101415.13
2023-05-15T09:36:32.626Z,101408.69
2023-05-15T09:37:34.772Z,101414.94
2023-05-15T09:38:43.495Z,101413.25
2023-05-15T09:39:45.293Z,101409.53
2023-05-15T09:40:47.150Z,101399.91
2023-05-15T09:41:48.956Z,101404.13
2023-05-15T09:42:53.850Z,101407.16
2023-05-15T09:43:57.055Z,101390.63
2023-05-15T09:44:58.994Z,101408.84
2023-05-15T09:46:01.198Z,101408.03
2023-05-15T09:47:05.744Z,101398.22
2023-05-15T09:48:08.422Z,101395.34
2023-05-15T09:49:11.129Z,101397.88
2023-05-15T09:50:13.073Z,101400.59
2023-05-15T09:51:19.838Z,101392.63
2023-05-15T09:52:23.338Z,101391.63
2023-05-15T09:53:25.581Z,101387.78
2023-05-15T09:54:28.153Z,101393.50
2023-05-15T09:55:33.259Z,101386.91
2023-05-15T09:56:35.331Z,101387.91
2023-05-15T09:57:37.955Z,101388.09
2023-05-15T09:58:52.453Z,101381.53
2023-05-15T09:59:54.243Z,101388.44
2023-05-15T10:00:59.508Z,101388.78
2023-05-15T10:02:01.473Z,101371.22
2023-05-15T10:03:04.866Z,101388.09
2023-05-15T10:04:06.763Z,101391.47
2023-05-15T10:05:08.875Z,101386.22
2023-05-15T10:06:18.578Z,101387.09
2023-05-15T10:07:30.148Z,101385.72
2023-05-15T10:08:32.215Z,101385.72
2023-05-15T10:09:34.040Z,101393.16
2023-05-15T10:10:35.851Z,101380.66
2023-05-15T10:11:39.909Z,101388.94
2023-05-15T10:12:41.828Z,101383.38
2023-05-15T10:13:43.761Z,101390.59
2023-05-15T10:14:47.274Z,101383.53
2023-05-15T10:15:49.884Z,101387.09
2023-05-15T10:16:52.526Z,101386.22
2023-05-15T10:17:54.643Z,101386.22
2023-05-15T10:18:57.806Z,101387.09
2023-05-15T10:20:00.912Z,101385.22
2023-05-15T10:21:04.475Z,101384.38
2023-05-15T10:22:07.748Z,101365.16
2023-05-15T10:23:10.817Z,101384.53
2023-05-15T10:24:13.789Z,101385.22
2023-05-15T10:25:30.853Z,101386.75
2023-05-15T10:26:40.781Z,101378.63
2023-05-15T10:27:43.321Z,101343.91
2023-05-15T10:28:46.631Z,101374.25
2023-05-15T10:29:49.744Z,101370.72
2023-05-15T10:30:53.243Z,101367.31
2023-05-15T10:31:55.640Z,101364.44
2023-05-15T10:32:59.150Z,101367.16
2023-05-15T10:34:01.800Z,101363.59
2023-05-15T10:35:04.230Z,101363.59
2023-05-15T10:36:07.425Z,101359.03
2023-05-15T10:37:11.106Z,101362.59
2023-05-15T10:38:13.770Z,101365.31
2023-05-15T10:39:16.719Z,101351.81
2023-05-15T10:40:19.222Z,101366.13
2023-05-15T10:41:22.373Z,101358.03
2023-05-15T10:42:26.819Z,101358.19
2023-05-15T10:43:28.991Z,101357.22
2023-05-15T10:44:30.804Z,101357.00
2023-05-15T10:45:33.504Z,101354.50
2023-05-15T10:46:36.915Z,101355.34
2023-05-15T10:47:40.807Z,101356.19
2023-05-15T10:48:42.833Z,101357.00
2023-05-15T10:49:44.643Z,101356.19
2023-05-15T10:50:48.713Z,101350.94
2023-05-15T10:51:53.052Z,101349.09
2023-05-15T10:52:55.961Z,101354.31
2023-05-15T10:53:58.180Z,101355.34
2023-05-15T10:55:00.705Z,101348.09
2023-05-15T10:56:02.789Z,101346.22
2023-05-15T10:57:05.465Z,101353.31
2023-05-15T10:58:10.656Z,101349.25
2023-05-15T10:59:12.474Z,101354.97
2023-05-15T11:00:24.078Z,101348.56
2023-05-15T11:01:35.049Z,101350.25
2023-05-15T11:02:40.004Z,101350.25
2023-05-15T11:03:49.527Z,101347.53
2023-05-15T11:05:00.357Z,101338.41
2023-05-15T11:06:13.590Z,101349.06
2023-05-15T11:07:17.131Z,101347.38
2023-05-15T11:08:21.488Z,101349.22
2023-05-15T11:09:27.755Z,101347.53
2023-05-15T11:10:29.807Z,101357.34
2023-05-15T11:11:53.345Z,101344.50
2023-05-15T11:12:59.039Z,101342.00
2023-05-15T11:14:08.032Z,101347.38
2023-05-15T11:15:09.778Z,101344.69
2023-05-15T11:16:12.231Z,101336.75
2023-05-15T11:17:16.684Z,101317.53
2023-05-15T11:18:20.362Z,101337.09
2023-05-15T11:19:22.941Z,101340.66
2023-05-15T11:20:42.395Z,101338.78
2023-05-15T11:21:47.227Z,101338.41
2023-05-15T11:22:59.898Z,101337.41
2023-05-15T11:24:05.425Z,101327.63
2023-05-15T11:25:09.339Z,101334.72
2023-05-15T11:26:13.452Z,101330.50
2023-05-15T11:27:20.829Z,101326.78
2023-05-15T11:28:24.219Z,101323.91
2023-05-15T11:29:26.088Z,101288.84
2023-05-15T11:30:41.252Z,101323.06
2023-05-15T11:31:43.175Z,101328.28
2023-05-15T11:32:44.978Z,101323.91
2023-05-15T11:33:52.403Z,101320.53
2023-05-15T11:35:01.101Z,101320.19
2023-05-15T11:36:05.323Z,101314.78
2023-05-15T11:37:17.123Z,101306.84
2023-05-15T11:38:24.811Z,101309.03
2023-05-15T11:39:27.704Z,101307.19
2023-05-15T11:40:44.456Z,101305.66
2023-05-15T11:41:46.272Z,101297.69
2023-05-15T11:43:06.371Z,101294.81
2023-05-15T11:44:09.122Z,101290.25
2023-05-15T11:45:11.431Z,101287.06
2023-05-15T11:46:14.582Z,101281.84
2023-05-15T11:47:17.323Z,101280.97
2023-05-15T11:48:19.820Z,101275.94
2023-05-15T11:49:22.852Z,101285.38
2023-05-15T11:50:25.499Z,101275.56
2023-05-15T11:51:27.835Z,101274.56
2023-05-15T11:52:31.008Z,101278.28
2023-05-15T11:53:33.641Z,101264.75
2023-05-15T11:54:35.574Z,101273.53
2023-05-15T11:55:38.967Z,101281.66
2023-05-15T11:56:45.042Z,101273.53
2023-05-15T11:57:47.533Z,101281.28
2023-05-15T11:58:50.755Z,101279.59
2023-05-15T11:59:55.954Z,101278.94
2023-05-15T12:00:58.072Z,101280.47
2023-05-15T12:01:59.868Z,101280.28
2023-05-15T12:03:03.720Z,101277.56
2023-05-15T12:04:13.660Z,101281.97
2023-05-15T12:05:15.638Z,101272.88
2023-05-15T12:06:18.281Z,101271.00
2023-05-15T12:07:20.111Z,101276.38